sensor_id;sensor_type;location;lat;lon;timestamp;pressure;altitude;pressure_sealevel;temperature
18219;BMP180;9234;49.344;11.120;2023-02-24T00:01:55;97025.00;;;8.80
18219;BMP180;9234;49.344;11.120;2023-02-24T00:04:29;97019.00;;;8.80
18219;BMP180;9234;49.344;11.120;2023-02-24T00:06:58;97023.00;;;8.80
18219;BMP180;9234;49.344;11.120;2023-02-24T00:09:29;97020.00;;;8.80
18219;BMP180;9234;49.344;11.120;2023-02-24T00:12:02;97023.00;;;8.80
18219;BMP180;9234;49.344;11.120;2023-02-24T00:14:39;97013.00;;;8.80
18219;BMP180;9234;49.344;11.120;2023-02-24T00:17:08;97013.00;;;8.80
18219;BMP180;9234;49.344;11.120;2023-02-24T00:19:38;97011.00;;;8.80
18219;BMP180;9234;49.344;11.120;2023-02-24T00:22:08;97019.00;;;8.80
18219;BMP180;9234;49.344;11.120;2023-02-24T00:24:37;97018.00;;;8.80
18219;BMP180;9234;49.344;11.120;2023-02-24T00:27:06;97014.00;;;8.80
18219;BMP180;9234;49.344;11.120;2023-02-24T00:29:37;97004.00;;;8.90
18219;BMP180;9234;49.344;11.120;2023-02-24T00:32:08;97006.00;;;8.90
18219;BMP180;9234;49.344;11.120;2023-02-24T00:34:39;96992.00;;;8.90
18219;BMP180;9234;49.344;11.120;2023-02-24T00:37:08;96999.00;;;8.90
18219;BMP180;9234;49.344;11.120;2023-02-24T00:39:38;96996.00;;;8.90
18219;BMP180;9234;49.344;11.120;2023-02-24T00:42:10;96983.00;;;8.90
18219;BMP180;9234;49.344;11.120;2023-02-24T00:44:40;96984.00;;;8.90
18219;BMP180;9234;49.344;11.120;2023-02-24T00:47:12;96987.00;;;8.90
18219;BMP180;9234;49.344;11.120;2023-02-24T00:49:42;96988.00;;;8.90
18219;BMP180;9234;49.344;11.120;2023-02-24T00:52:13;96979.00;;;8.90
18219;BMP180;9234;49.344;11.120;2023-02-24T00:54:45;96984.00;;;8.90
18219;BMP180;9234;49.344;11.120;2023-02-24T00:57:14;96974.00;;;8.90
18219;BMP180;9234;49.344;11.120;2023-02-24T00:59:44;96972.00;;;8.90
18219;BMP180;9234;49.344;11.120;2023-02-24T01:02:14;96984.00;;;8.90
18219;BMP180;9234;49.344;11.120;2023-02-24T01:04:44;96964.00;;;8.90
18219;BMP180;9234;49.344;11.120;2023-02-24T01:07:13;96959.00;;;8.90
18219;BMP180;9234;49.344;11.120;2023-02-24T01:09:42;96952.00;;;8.90
18219;BMP180;9234;49.344;11.120;2023-02-24T01:12:12;96950.00;;;8.90
18219;BMP180;9234;49.344;11.120;2023-02-24T01:14:58;96957.00;;;8.90
18219;BMP180;9234;49.344;11.120;2023-02-24T01:17:29;96967.00;;;8.90
18219;BMP180;9234;49.344;11.120;2023-02-24T01:19:57;96951.00;;;8.90
18219;BMP180;9234;49.344;11.120;2023-02-24T01:22:26;96955.00;;;8.90
18219;BMP180;9234;49.344;11.120;2023-02-24T01:24:55;96943.00;;;8.90
18219;BMP180;9234;49.344;11.120;2023-02-24T01:27:24;96953.00;;;8.90
18219;BMP180;9234;49.344;11.120;2023-02-24T01:29:52;96935.00;;;8.90
18219;BMP180;9234;49.344;11.120;2023-02-24T01:32:21;96941.00;;;8.90
18219;BMP180;9234;49.344;11.120;2023-02-24T01:34:51;96934.00;;;8.90
18219;BMP180;9234;49.344;11.120;2023-02-24T01:37:20;96943.00;;;8.90
18219;BMP180;9234;49.344;11.120;2023-02-24T01:39:50;96939.00;;;8.90
18219;BMP180;9234;49.344;11.120;2023-02-24T01:42:20;96933.00;;;8.90
18219;BMP180;9234;49.344;11.120;2023-02-24T01:45:11;96914.00;;;8.90
18219;BMP180;9234;49.344;11.120;2023-02-24T01:47:41;96919.00;;;8.90
18219;BMP180;9234;49.344;11.120;2023-02-24T01:50:14;96921.00;;;8.90
18219;BMP180;9234;49.344;11.120;2023-02-24T01:52:46;96931.00;;;8.90
18219;BMP180;9234;49.344;11.120;2023-02-24T01:55:21;96910.00;;;8.90
18219;BMP180;9234;49.344;11.120;2023-02-24T01:57:52;96901.00;;;8.90
18219;BMP180;9234;49.344;11.120;2023-02-24T02:00:22;96905.00;;;8.80
18219;BMP180;9234;49.344;11.120;2023-02-24T02:03:15;96909.00;;;8.80
18219;BMP180;9234;49.344;11.120;2023-02-24T02:05:45;96918.00;;;8.80
18219;BMP180;9234;49.344;11.120;2023-02-24T02:08:18;96911.00;;;8.80
18219;BMP180;9234;49.344;11.120;2023-02-24T02:10:48;96913.00;;;8.80
18219;BMP180;9234;49.344;11.120;2023-02-24T02:13:19;96905.00;;;8.80
18219;BMP180;9234;49.344;11.120;2023-02-24T02:16:02;96891.00;;;8.80
18219;BMP180;9234;49.344;11.120;2023-02-24T02:18:43;96903.00;;;8.80
18219;BMP180;9234;49.344;11.120;2023-02-24T02:22:00;96885.00;;;8.80
18219;BMP180;9234;49.344;11.120;2023-02-24T02:24:47;96894.00;;;8.80
18219;BMP180;9234;49.344;11.120;2023-02-24T02:28:11;96887.00;;;8.80
18219;BMP180;9234;49.344;11.120;2023-02-24T02:31:31;96882.00;;;8.80
18219;BMP180;9234;49.344;11.120;2023-02-24T02:34:27;96891.00;;;8.80
18219;BMP180;9234;49.344;11.120;2023-02-24T02:37:04;96893.00;;;8.80
18219;BMP180;9234;49.344;11.120;2023-02-24T02:39:48;96891.00;;;8.80
18219;BMP180;9234;49.344;11.120;2023-02-24T02:42:27;96889.00;;;8.80
18219;BMP180;9234;49.344;11.120;2023-02-24T02:45:06;96888.00;;;8.80
18219;BMP180;9234;49.344;11.120;2023-02-24T02:47:43;96888.00;;;8.80
18219;BMP180;9234;49.344;11.120;2023-02-24T02:50:22;96888.00;;;8.80
18219;BMP180;9234;49.344;11.120;2023-02-24T02:52:57;96892.00;;;8.80
18219;BMP180;9234;49.344;11.120;2023-02-24T02:55:34;96882.00;;;8.80
18219;BMP180;9234;49.344;11.120;2023-02-24T02:58:09;96863.00;;;8.80
18219;BMP180;9234;49.344;11.120;2023-02-24T03:00:47;96866.00;;;8.80
18219;BMP180;9234;49.344;11.120;2023-02-24T03:03:26;96863.00;;;8.80
18219;BMP180;9234;49.344;11.120;2023-02-24T03:06:04;96868.00;;;8.80
18219;BMP180;9234;49.344;11.120;2023-02-24T03:08:36;96874.00;;;8.80
18219;BMP180;9234;49.344;11.120;2023-02-24T03:11:11;96861.00;;;8.80
18219;BMP180;9234;49.344;11.120;2023-02-24T03:13:45;96870.00;;;8.80
18219;BMP180;9234;49.344;11.120;2023-02-24T03:16:17;96871.00;;;8.90
18219;BMP180;9234;49.344;11.120;2023-02-24T03:18:52;96868.00;;;8.90
18219;BMP180;9234;49.344;11.120;2023-02-24T03:21:29;96855.00;;;8.90
18219;BMP180;9234;49.344;11.120;2023-02-24T03:24:01;96854.00;;;8.90
18219;BMP180;9234;49.344;11.120;2023-02-24T03:26:41;96864.00;;;8.90
18219;BMP180;9234;49.344;11.120;2023-02-24T03:29:16;96859.00;;;8.90
18219;BMP180;9234;49.344;11.120;2023-02-24T03:31:53;96862.00;;;9.00
18219;BMP180;9234;49.344;11.120;2023-02-24T03:34:36;96851.00;;;9.00
18219;BMP180;9234;49.344;11.120;2023-02-24T03:37:08;96861.00;;;9.00
18219;BMP180;9234;49.344;11.120;2023-02-24T03:39:37;96855.00;;;9.00
18219;BMP180;9234;49.344;11.120;2023-02-24T03:42:18;96838.00;;;9.00
18219;BMP180;9234;49.344;11.120;2023-02-24T03:44:48;96835.00;;;9.00
18219;BMP180;9234;49.344;11.120;2023-02-24T03:47:17;96842.00;;;9.00
18219;BMP180;9234;49.344;11.120;2023-02-24T03:49:47;96846.00;;;9.00
18219;BMP180;9234;49.344;11.120;2023-02-24T03:52:33;96826.00;;;9.00
18219;BMP180;9234;49.344;11.120;2023-02-24T03:55:23;96824.00;;;9.00
18219;BMP180;9234;49.344;11.120;2023-02-24T03:58:10;96827.00;;;9.00
18219;BMP180;9234;49.344;11.120;2023-02-24T04:00:52;96834.00;;;9.00
18219;BMP180;9234;49.344;11.120;2023-02-24T04:03:32;96833.00;;;9.00
18219;BMP180;9234;49.344;11.120;2023-02-24T04:06:21;96837.00;;;8.90
18219;BMP180;9234;49.344;11.120;2023-02-24T04:09:06;96836.00;;;8.90
18219;BMP180;9234;49.344;11.120;2023-02-24T04:11:55;96834.00;;;8.90
18219;BMP180;9234;49.344;11.120;2023-02-24T04:14:32;96851.00;;;8.90
18219;BMP180;9234;49.344;11.120;2023-02-24T04:17:13;96853.00;;;8.90
18219;BMP180;9234;49.344;11.120;2023-02-24T04:19:50;96837.00;;;8.90
18219;BMP180;9234;49.344;11.120;2023-02-24T04:22:24;96839.00;;;8.90
18219;BMP180;9234;49.344;11.120;2023-02-24T04:24:59;96838.00;;;8.90
18219;BMP180;9234;49.344;11.120;2023-02-24T04:27:29;96842.00;;;8.90
18219;BMP180;9234;49.344;11.120;2023-02-24T04:30:12;96843.00;;;8.80
18219;BMP180;9234;49.344;11.120;2023-02-24T04:32:41;96839.00;;;8.90
18219;BMP180;9234;49.344;11.120;2023-02-24T04:35:14;96838.00;;;8.90
18219;BMP180;9234;49.344;11.120;2023-02-24T04:37:47;96834.00;;;8.90
18219;BMP180;9234;49.344;11.120;2023-02-24T04:40:19;96818.00;;;8.90
18219;BMP180;9234;49.344;11.120;2023-02-24T04:42:50;96827.00;;;8.90
18219;BMP180;9234;49.344;11.120;2023-02-24T04:45:20;96813.00;;;8.90
18219;BMP180;9234;49.344;11.120;2023-02-24T04:47:52;96823.00;;;8.90
18219;BMP180;9234;49.344;11.120;2023-02-24T04:50:23;96823.00;;;8.90
18219;BMP180;9234;49.344;11.120;2023-02-24T04:52:55;96825.00;;;8.80
18219;BMP180;9234;49.344;11.120;2023-02-24T04:55:26;96806.00;;;8.80
18219;BMP180;9234;49.344;11.120;2023-02-24T04:58:00;96817.00;;;8.80
18219;BMP180;9234;49.344;11.120;2023-02-24T05:00:29;96810.00;;;8.80
18219;BMP180;9234;49.344;11.120;2023-02-24T05:03:04;96804.00;;;8.80
18219;BMP180;9234;49.344;11.120;2023-02-24T05:05:32;96797.00;;;8.80
18219;BMP180;9234;49.344;11.120;2023-02-24T05:08:04;96788.00;;;8.80
18219;BMP180;9234;49.344;11.120;2023-02-24T05:10:38;96789.00;;;8.80
18219;BMP180;9234;49.344;11.120;2023-02-24T05:13:08;96785.00;;;8.80
18219;BMP180;9234;49.344;11.120;2023-02-24T05:15:40;96786.00;;;8.80
18219;BMP180;9234;49.344;11.120;2023-02-24T05:18:13;96786.00;;;8.80
18219;BMP180;9234;49.344;11.120;2023-02-24T05:20:47;96794.00;;;8.80
18219;BMP180;9234;49.344;11.120;2023-02-24T05:23:35;96776.00;;;8.80
18219;BMP180;9234;49.344;11.120;2023-02-24T05:26:09;96764.00;;;8.80
18219;BMP180;9234;49.344;11.120;2023-02-24T05:28:39;96772.00;;;8.80
18219;BMP180;9234;49.344;11.120;2023-02-24T05:31:10;96773.00;;;8.80
18219;BMP180;9234;49.344;11.120;2023-02-24T05:33:42;96778.00;;;8.80
18219;BMP180;9234;49.344;11.120;2023-02-24T05:36:14;96766.00;;;8.80
18219;BMP180;9234;49.344;11.120;2023-02-24T05:38:44;96770.00;;;8.80
18219;BMP180;9234;49.344;11.120;2023-02-24T05:41:17;96780.00;;;8.80
18219;BMP180;9234;49.344;11.120;2023-02-24T05:43:49;96765.00;;;8.80
18219;BMP180;9234;49.344;11.120;2023-02-24T05:46:19;96765.00;;;8.80
18219;BMP180;9234;49.344;11.120;2023-02-24T05:48:54;96759.00;;;8.80
18219;BMP180;9234;49.344;11.120;2023-02-24T05:51:24;96754.00;;;8.80
18219;BMP180;9234;49.344;11.120;2023-02-24T05:53:52;96742.00;;;8.80
18219;BMP180;9234;49.344;11.120;2023-02-24T05:56:23;96735.00;;;8.80
18219;BMP180;9234;49.344;11.120;2023-02-24T05:58:53;96747.00;;;8.80
18219;BMP180;9234;49.344;11.120;2023-02-24T06:01:28;96748.00;;;8.70
18219;BMP180;9234;49.344;11.120;2023-02-24T06:03:59;96747.00;;;8.70
18219;BMP180;9234;49.344;11.120;2023-02-24T06:06:36;96753.00;;;8.70
18219;BMP180;9234;49.344;11.120;2023-02-24T06:09:08;96746.00;;;8.70
18219;BMP180;9234;49.344;11.120;2023-02-24T06:11:39;96749.00;;;8.70
18219;BMP180;9234;49.344;11.120;2023-02-24T06:14:09;96747.00;;;8.70
18219;BMP180;9234;49.344;11.120;2023-02-24T06:16:40;96733.00;;;8.70
18219;BMP180;9234;49.344;11.120;2023-02-24T06:19:11;96739.00;;;8.70
18219;BMP180;9234;49.344;11.120;2023-02-24T06:21:40;96743.00;;;8.70
18219;BMP180;9234;49.344;11.120;2023-02-24T06:24:12;96740.00;;;8.70
18219;BMP180;9234;49.344;11.120;2023-02-24T06:26:43;96740.00;;;8.70
18219;BMP180;9234;49.344;11.120;2023-02-24T06:29:13;96739.00;;;8.70
18219;BMP180;9234;49.344;11.120;2023-02-24T06:31:42;96746.00;;;8.80
18219;BMP180;9234;49.344;11.120;2023-02-24T06:34:11;96724.00;;;8.80
18219;BMP180;9234;49.344;11.120;2023-02-24T06:36:40;96736.00;;;8.80
18219;BMP180;9234;49.344;11.120;2023-02-24T06:39:09;96733.00;;;8.80
18219;BMP180;9234;49.344;11.120;2023-02-24T06:41:41;96747.00;;;8.80
18219;BMP180;9234;49.344;11.120;2023-02-24T06:44:10;96726.00;;;8.80
18219;BMP180;9234;49.344;11.120;2023-02-24T06:46:38;96724.00;;;8.80
18219;BMP180;9234;49.344;11.120;2023-02-24T06:49:07;96721.00;;;8.80
18219;BMP180;9234;49.344;11.120;2023-02-24T06:51:35;96712.00;;;8.80
18219;BMP180;9234;49.344;11.120;2023-02-24T06:54:05;96725.00;;;8.80
18219;BMP180;9234;49.344;11.120;2023-02-24T06:56:33;96708.00;;;8.80
18219;BMP180;9234;49.344;11.120;2023-02-24T06:59:06;96707.00;;;8.90
18219;BMP180;9234;49.344;11.120;2023-02-24T07:01:38;96701.00;;;8.90
18219;BMP180;9234;49.344;11.120;2023-02-24T07:04:11;96716.00;;;8.90
18219;BMP180;9234;49.344;11.120;2023-02-24T07:06:49;96723.00;;;8.90
18219;BMP180;9234;49.344;11.120;2023-02-24T07:09:21;96741.00;;;9.00
18219;BMP180;9234;49.344;11.120;2023-02-24T07:11:52;96731.00;;;9.00
18219;BMP180;9234;49.344;11.120;2023-02-24T07:14:27;96728.00;;;9.00
18219;BMP180;9234;49.344;11.120;2023-02-24T07:16:57;96732.00;;;9.00
18219;BMP180;9234;49.344;11.120;2023-02-24T07:19:28;96721.00;;;9.10
18219;BMP180;9234;49.344;11.120;2023-02-24T07:22:00;96708.00;;;9.10
18219;BMP180;9234;49.344;11.120;2023-02-24T07:24:33;96714.00;;;9.10
18219;BMP180;9234;49.344;11.120;2023-02-24T07:27:05;96710.00;;;9.20
18219;BMP180;9234;49.344;11.120;2023-02-24T07:29:36;96704.00;;;9.20
18219;BMP180;9234;49.344;11.120;2023-02-24T07:32:07;96713.00;;;9.20
18219;BMP180;9234;49.344;11.120;2023-02-24T07:34:36;96709.00;;;9.20
18219;BMP180;9234;49.344;11.120;2023-02-24T07:37:07;96704.00;;;9.20
18219;BMP180;9234;49.344;11.120;2023-02-24T07:39:37;96703.00;;;9.30
18219;BMP180;9234;49.344;11.120;2023-02-24T07:42:07;96702.00;;;9.30
18219;BMP180;9234;49.344;11.120;2023-02-24T07:44:44;96698.00;;;9.40
18219;BMP180;9234;49.344;11.120;2023-02-24T07:47:15;96701.00;;;9.40
18219;BMP180;9234;49.344;11.120;2023-02-24T07:49:43;96712.00;;;9.50
18219;BMP180;9234;49.344;11.120;2023-02-24T07:52:12;96688.00;;;9.50
18219;BMP180;9234;49.344;11.120;2023-02-24T07:54:41;96695.00;;;9.50
18219;BMP180;9234;49.344;11.120;2023-02-24T07:57:10;96696.00;;;9.60
18219;BMP180;9234;49.344;11.120;2023-02-24T07:59:40;96691.00;;;9.60
18219;BMP180;9234;49.344;11.120;2023-02-24T08:02:14;96682.00;;;9.60
18219;BMP180;9234;49.344;11.120;2023-02-24T08:04:42;96685.00;;;9.70
18219;BMP180;9234;49.344;11.120;2023-02-24T08:07:17;96675.00;;;9.70
18219;BMP180;9234;49.344;11.120;2023-02-24T08:09:50;96685.00;;;9.70
18219;BMP180;9234;49.344;11.120;2023-02-24T08:12:40;96677.00;;;9.80
18219;BMP180;9234;49.344;11.120;2023-02-24T08:15:13;96672.00;;;9.80
18219;BMP180;9234;49.344;11.120;2023-02-24T08:17:53;96691.00;;;9.80
18219;BMP180;9234;49.344;11.120;2023-02-24T08:20:26;96681.00;;;9.90
18219;BMP180;9234;49.344;11.120;2023-02-24T08:22:56;96681.00;;;9.90
18219;BMP180;9234;49.344;11.120;2023-02-24T08:25:27;96680.00;;;9.90
18219;BMP180;9234;49.344;11.120;2023-02-24T08:28:05;96680.00;;;9.90
18219;BMP180;9234;49.344;11.120;2023-02-24T08:30:40;96681.00;;;9.90
18219;BMP180;9234;49.344;11.120;2023-02-24T08:33:18;96679.00;;;9.90
18219;BMP180;9234;49.344;11.120;2023-02-24T08:35:51;96670.00;;;9.90
18219;BMP180;9234;49.344;11.120;2023-02-24T08:38:30;96660.00;;;9.90
18219;BMP180;9234;49.344;11.120;2023-02-24T08:41:14;96663.00;;;9.90
18219;BMP180;9234;49.344;11.120;2023-02-24T08:43:47;96648.00;;;9.90
18219;BMP180;9234;49.344;11.120;2023-02-24T08:46:20;96646.00;;;10.00
18219;BMP180;9234;49.344;11.120;2023-02-24T08:48:57;96641.00;;;10.00
18219;BMP180;9234;49.344;11.120;2023-02-24T08:51:30;96650.00;;;10.10
18219;BMP180;9234;49.344;11.120;2023-02-24T08:54:03;96642.00;;;10.10
18219;BMP180;9234;49.344;11.120;2023-02-24T08:56:37;96636.00;;;10.10
18219;BMP180;9234;49.344;11.120;2023-02-24T08:59:12;96641.00;;;10.10
18219;BMP180;9234;49.344;11.120;2023-02-24T09:01:56;96645.00;;;10.20
18219;BMP180;9234;49.344;11.120;2023-02-24T09:04:40;96642.00;;;10.20
18219;BMP180;9234;49.344;11.120;2023-02-24T09:07:16;96634.00;;;10.20
18219;BMP180;9234;49.344;11.120;2023-02-24T09:09:45;96621.00;;;10.20
18219;BMP180;9234;49.344;11.120;2023-02-24T09:12:14;96629.00;;;10.30
18219;BMP180;9234;49.344;11.120;2023-02-24T09:14:54;96630.00;;;10.30
18219;BMP180;9234;49.344;11.120;2023-02-24T09:17:27;96630.00;;;10.30
18219;BMP180;9234;49.344;11.120;2023-02-24T09:20:20;96626.00;;;10.30
18219;BMP180;9234;49.344;11.120;2023-02-24T09:23:17;96619.00;;;10.30
18219;BMP180;9234;49.344;11.120;2023-02-24T09:25:56;96631.00;;;10.30
18219;BMP180;9234;49.344;11.120;2023-02-24T09:28:25;96639.00;;;10.40
18219;BMP180;9234;49.344;11.120;2023-02-24T09:31:00;96620.00;;;10.40
18219;BMP180;9234;49.344;11.120;2023-02-24T09:33:33;96616.00;;;10.40
18219;BMP180;9234;49.344;11.120;2023-02-24T09:36:09;96629.00;;;10.50
18219;BMP180;9234;49.344;11.120;2023-02-24T09:38:42;96618.00;;;10.50
18219;BMP180;9234;49.344;11.120;2023-02-24T09:41:33;96636.00;;;10.60
18219;BMP180;9234;49.344;11.120;2023-02-24T09:44:27;96610.00;;;10.70
18219;BMP180;9234;49.344;11.120;2023-02-24T09:47:09;96606.00;;;10.70
18219;BMP180;9234;49.344;11.120;2023-02-24T09:49:49;96589.00;;;10.80
18219;BMP180;9234;49.344;11.120;2023-02-24T09:52:27;96599.00;;;10.90
18219;BMP180;9234;49.344;11.120;2023-02-24T09:55:17;96600.00;;;11.00
18219;BMP180;9234;49.344;11.120;2023-02-24T09:57:58;96597.00;;;11.00
18219;BMP180;9234;49.344;11.120;2023-02-24T10:00:55;96595.00;;;11.10
18219;BMP180;9234;49.344;11.120;2023-02-24T10:03:32;96592.00;;;11.20
18219;BMP180;9234;49.344;11.120;2023-02-24T10:06:17;96587.00;;;11.20
18219;BMP180;9234;49.344;11.120;2023-02-24T10:08:54;96585.00;;;11.20
18219;BMP180;9234;49.344;11.120;2023-02-24T10:11:25;96566.00;;;11.20
18219;BMP180;9234;49.344;11.120;2023-02-24T10:14:03;96575.00;;;11.30
18219;BMP180;9234;49.344;11.120;2023-02-24T10:16:39;96569.00;;;11.40
18219;BMP180;9234;49.344;11.120;2023-02-24T10:19:23;96569.00;;;11.50
18219;BMP180;9234;49.344;11.120;2023-02-24T10:21:59;96560.00;;;11.50
18219;BMP180;9234;49.344;11.120;2023-02-24T10:24:40;96549.00;;;11.60
18219;BMP180;9234;49.344;11.120;2023-02-24T10:27:20;96538.00;;;11.70
18219;BMP180;9234;49.344;11.120;2023-02-24T10:30:01;96524.00;;;11.70
18219;BMP180;9234;49.344;11.120;2023-02-24T10:32:47;96510.00;;;11.90
18219;BMP180;9234;49.344;11.120;2023-02-24T10:35:19;96531.00;;;12.00
18219;BMP180;9234;49.344;11.120;2023-02-24T10:37:52;96539.00;;;12.00
18219;BMP180;9234;49.344;11.120;2023-02-24T10:40:28;96535.00;;;12.00
18219;BMP180;9234;49.344;11.120;2023-02-24T10:43:16;96523.00;;;11.80
18219;BMP180;9234;49.344;11.120;2023-02-24T10:45:46;96530.00;;;11.70
18219;BMP180;9234;49.344;11.120;2023-02-24T10:48:18;96530.00;;;11.50
18219;BMP180;9234;49.344;11.120;2023-02-24T10:51:12;96523.00;;;11.40
18219;BMP180;9234;49.344;11.120;2023-02-24T10:53:49;96512.00;;;11.30
18219;BMP180;9234;49.344;11.120;2023-02-24T10:56:41;96517.00;;;11.10
18219;BMP180;9234;49.344;11.120;2023-02-24T10:59:21;96501.00;;;11.00
18219;BMP180;9234;49.344;11.120;2023-02-24T11:02:17;96507.00;;;11.00
18219;BMP180;9234;49.344;11.120;2023-02-24T11:04:58;96502.00;;;10.90
18219;BMP180;9234;49.344;11.120;2023-02-24T11:08:06;96479.00;;;10.90
18219;BMP180;9234;49.344;11.120;2023-02-24T11:10:41;96475.00;;;10.90
18219;BMP180;9234;49.344;11.120;2023-02-24T11:13:20;96469.00;;;10.90
18219;BMP180;9234;49.344;11.120;2023-02-24T11:16:09;96467.00;;;10.90
18219;BMP180;9234;49.344;11.120;2023-02-24T11:18:56;96464.00;;;11.00
18219;BMP180;9234;49.344;11.120;2023-02-24T11:21:26;96459.00;;;10.90
18219;BMP180;9234;49.344;11.120;2023-02-24T11:23:58;96442.00;;;11.00
18219;BMP180;9234;49.344;11.120;2023-02-24T11:26:35;96447.00;;;11.10
18219;BMP180;9234;49.344;11.120;2023-02-24T11:29:31;96434.00;;;11.30
18219;BMP180;9234;49.344;11.120;2023-02-24T11:32:27;96433.00;;;11.60
18219;BMP180;9234;49.344;11.120;2023-02-24T11:35:08;96438.00;;;11.80
18219;BMP180;9234;49.344;11.120;2023-02-24T11:37:42;96429.00;;;12.10
18219;BMP180;9234;49.344;11.120;2023-02-24T11:40:16;96420.00;;;12.20
18219;BMP180;9234;49.344;11.120;2023-02-24T11:42:51;96419.00;;;12.20
18219;BMP180;9234;49.344;11.120;2023-02-24T11:45:31;96401.00;;;12.10
18219;BMP180;9234;49.344;11.120;2023-02-24T11:48:05;96409.00;;;12.00
18219;BMP180;9234;49.344;11.120;2023-02-24T11:50:46;96395.00;;;12.00
18219;BMP180;9234;49.344;11.120;2023-02-24T11:53:31;96390.00;;;11.90
18219;BMP180;9234;49.344;11.120;2023-02-24T11:56:05;96392.00;;;11.80
18219;BMP180;9234;49.344;11.120;2023-02-24T11:58:42;96389.00;;;11.80
18219;BMP180;9234;49.344;11.120;2023-02-24T12:01:22;96368.00;;;11.80
18219;BMP180;9234;49.344;11.120;2023-02-24T12:04:04;96372.00;;;11.80
18219;BMP180;9234;49.344;11.120;2023-02-24T12:06:45;96374.00;;;11.90
18219;BMP180;9234;49.344;11.120;2023-02-24T12:09:18;96364.00;;;11.90
18219;BMP180;9234;49.344;11.120;2023-02-24T12:11:57;96355.00;;;11.90
18219;BMP180;9234;49.344;11.120;2023-02-24T12:14:36;96360.00;;;11.90
18219;BMP180;9234;49.344;11.120;2023-02-24T12:17:19;96350.00;;;11.80
18219;BMP180;9234;49.344;11.120;2023-02-24T12:19:59;96347.00;;;11.80
18219;BMP180;9234;49.344;11.120;2023-02-24T12:22:40;96338.00;;;11.70
18219;BMP180;9234;49.344;11.120;2023-02-24T12:25:13;96337.00;;;11.60
18219;BMP180;9234;49.344;11.120;2023-02-24T12:28:05;96331.00;;;11.50
18219;BMP180;9234;49.344;11.120;2023-02-24T12:30:50;96330.00;;;11.40
18219;BMP180;9234;49.344;11.120;2023-02-24T12:33:43;96325.00;;;11.30
18219;BMP180;9234;49.344;11.120;2023-02-24T12:36:42;96314.00;;;11.30
18219;BMP180;9234;49.344;11.120;2023-02-24T12:39:17;96320.00;;;11.30
18219;BMP180;9234;49.344;11.120;2023-02-24T12:42:00;96319.00;;;11.30
18219;BMP180;9234;49.344;11.120;2023-02-24T12:44:46;96313.00;;;11.30
18219;BMP180;9234;49.344;11.120;2023-02-24T12:47:24;96313.00;;;11.30
18219;BMP180;9234;49.344;11.120;2023-02-24T12:50:11;96310.00;;;11.40
18219;BMP180;9234;49.344;11.120;2023-02-24T12:52:59;96310.00;;;11.50
18219;BMP180;9234;49.344;11.120;2023-02-24T12:55:44;96306.00;;;11.70
18219;BMP180;9234;49.344;11.120;2023-02-24T12:58:19;96296.00;;;11.80
18219;BMP180;9234;49.344;11.120;2023-02-24T13:01:04;96288.00;;;11.90
18219;BMP180;9234;49.344;11.120;2023-02-24T13:04:05;96271.00;;;12.00
18219;BMP180;9234;49.344;11.120;2023-02-24T13:06:50;96266.00;;;12.00
18219;BMP180;9234;49.344;11.120;2023-02-24T13:09:29;96277.00;;;12.00
18219;BMP180;9234;49.344;11.120;2023-02-24T13:12:07;96274.00;;;12.00
18219;BMP180;9234;49.344;11.120;2023-02-24T13:14:41;96265.00;;;12.10
18219;BMP180;9234;49.344;11.120;2023-02-24T13:17:21;96269.00;;;12.10
18219;BMP180;9234;49.344;11.120;2023-02-24T13:19:53;96255.00;;;12.00
18219;BMP180;9234;49.344;11.120;2023-02-24T13:22:27;96268.00;;;12.00
18219;BMP180;9234;49.344;11.120;2023-02-24T13:25:16;96253.00;;;11.80
18219;BMP180;9234;49.344;11.120;2023-02-24T13:27:55;96245.00;;;11.70
18219;BMP180;9234;49.344;11.120;2023-02-24T13:30:32;96244.00;;;11.60
18219;BMP180;9234;49.344;11.120;2023-02-24T13:33:17;96242.00;;;11.50
18219;BMP180;9234;49.344;11.120;2023-02-24T13:35:49;96234.00;;;11.50
18219;BMP180;9234;49.344;11.120;2023-02-24T13:38:33;96220.00;;;11.50
18219;BMP180;9234;49.344;11.120;2023-02-24T13:41:19;96215.00;;;11.60
18219;BMP180;9234;49.344;11.120;2023-02-24T13:43:55;96200.00;;;11.80
18219;BMP180;9234;49.344;11.120;2023-02-24T13:46:27;96202.00;;;12.00
18219;BMP180;9234;49.344;11.120;2023-02-24T13:49:21;96207.00;;;12.10
18219;BMP180;9234;49.344;11.120;2023-02-24T13:52:01;96198.00;;;12.20
18219;BMP180;9234;49.344;11.120;2023-02-24T13:58:25;96187.00;;;12.10
18219;BMP180;9234;49.344;11.120;2023-02-24T14:01:11;96179.00;;;12.00
18219;BMP180;9234;49.344;11.120;2023-02-24T14:03:43;96173.00;;;11.90
18219;BMP180;9234;49.344;11.120;2023-02-24T14:06:21;96160.00;;;12.00
18219;BMP180;9234;49.344;11.120;2023-02-24T14:08:55;96164.00;;;12.30
18219;BMP180;9234;49.344;11.120;2023-02-24T14:11:28;96162.00;;;12.90
18219;BMP180;9234;49.344;11.120;2023-02-24T14:13:58;96153.00;;;13.80
18219;BMP180;9234;49.344;11.120;2023-02-24T14:16:32;96149.00;;;14.10
18219;BMP180;9234;49.344;11.120;2023-02-24T14:19:14;96146.00;;;14.10
18219;BMP180;9234;49.344;11.120;2023-02-24T14:21:50;96150.00;;;13.90
18219;BMP180;9234;49.344;11.120;2023-02-24T14:24:19;96142.00;;;13.80
18219;BMP180;9234;49.344;11.120;2023-02-24T14:26:51;96141.00;;;13.70
18219;BMP180;9234;49.344;11.120;2023-02-24T14:29:24;96147.00;;;13.70
18219;BMP180;9234;49.344;11.120;2023-02-24T14:31:55;96143.00;;;13.70
18219;BMP180;9234;49.344;11.120;2023-02-24T14:34:27;96144.00;;;13.60
18219;BMP180;9234;49.344;11.120;2023-02-24T14:37:00;96141.00;;;13.40
18219;BMP180;9234;49.344;11.120;2023-02-24T14:39:31;96130.00;;;13.30
18219;BMP180;9234;49.344;11.120;2023-02-24T14:42:12;96124.00;;;13.20
18219;BMP180;9234;49.344;11.120;2023-02-24T14:44:46;96118.00;;;13.10
18219;BMP180;9234;49.344;11.120;2023-02-24T14:47:17;96124.00;;;12.90
18219;BMP180;9234;49.344;11.120;2023-02-24T14:49:56;96119.00;;;12.70
18219;BMP180;9234;49.344;11.120;2023-02-24T14:52:33;96116.00;;;12.60
18219;BMP180;9234;49.344;11.120;2023-02-24T14:55:07;96108.00;;;12.80
18219;BMP180;9234;49.344;11.120;2023-02-24T14:57:43;96110.00;;;13.00
18219;BMP180;9234;49.344;11.120;2023-02-24T15:00:19;96098.00;;;13.00
18219;BMP180;9234;49.344;11.120;2023-02-24T15:03:00;96098.00;;;13.00
18219;BMP180;9234;49.344;11.120;2023-02-24T15:05:30;96096.00;;;12.90
18219;BMP180;9234;49.344;11.120;2023-02-24T15:08:01;96103.00;;;12.80
18219;BMP180;9234;49.344;11.120;2023-02-24T15:10:30;96101.00;;;12.80
18219;BMP180;9234;49.344;11.120;2023-02-24T15:13:09;96093.00;;;12.60